sensor_id;sensor_type;location;lat;lon;timestamp;P1;durP1;ratioP1;P2;durP2;ratioP2
16965;SDS011;8599;47.852;12.070;2023-04-03T00:00:05;8.33;;;5.97;;
16965;SDS011;8599;47.852;12.070;2023-04-03T00:02:33;6.30;;;5.57;;
16965;SDS011;8599;47.852;12.070;2023-04-03T00:05:00;6.47;;;5.87;;
16965;SDS011;8599;47.852;12.070;2023-04-03T00:07:27;6.37;;;5.77;;
16965;SDS011;8599;47.852;12.070;2023-04-03T00:09:55;6.97;;;6.10;;
16965;SDS011;8599;47.852;12.070;2023-04-03T00:12:22;8.97;;;7.40;;
16965;SDS011;8599;47.852;12.070;2023-04-03T00:14:49;8.73;;;6.97;;
16965;SDS011;8599;47.852;12.070;2023-04-03T00:17:15;8.10;;;6.30;;
16965;SDS011;8599;47.852;12.070;2023-04-03T00:19:42;8.70;;;5.93;;
16965;SDS011;8599;47.852;12.070;2023-04-03T00:22:09;6.90;;;6.20;;
16965;SDS011;8599;47.852;12.070;2023-04-03T00:24:36;7.67;;;6.13;;
16965;SDS011;8599;47.852;12.070;2023-04-03T00:27:04;6.77;;;6.17;;
16965;SDS011;8599;47.852;12.070;2023-04-03T00:29:31;6.87;;;6.17;;
16965;SDS011;8599;47.852;12.070;2023-04-03T00:31:58;6.90;;;6.20;;
16965;SDS011;8599;47.852;12.070;2023-04-03T00:34:25;7.83;;;6.40;;
16965;SDS011;8599;47.852;12.070;2023-04-03T00:36:51;7.73;;;5.97;;
16965;SDS011;8599;47.852;12.070;2023-04-03T00:39:18;8.40;;;6.00;;
16965;SDS011;8599;47.852;12.070;2023-04-03T00:41:45;7.23;;;5.60;;
16965;SDS011;8599;47.852;12.070;2023-04-03T00:44:20;7.70;;;5.67;;
16965;SDS011;8599;47.852;12.070;2023-04-03T00:46:48;8.63;;;6.17;;
16965;SDS011;8599;47.852;12.070;2023-04-03T00:49:15;8.23;;;6.10;;
16965;SDS011;8599;47.852;12.070;2023-04-03T00:51:42;7.70;;;5.77;;
16965;SDS011;8599;47.852;12.070;2023-04-03T00:54:09;7.50;;;6.70;;
16965;SDS011;8599;47.852;12.070;2023-04-03T00:56:36;8.50;;;5.93;;
16965;SDS011;8599;47.852;12.070;2023-04-03T00:59:05;7.23;;;5.70;;
16965;SDS011;8599;47.852;12.070;2023-04-03T01:01:37;12.77;;;6.53;;
16965;SDS011;8599;47.852;12.070;2023-04-03T01:04:05;7.53;;;5.90;;
16965;SDS011;8599;47.852;12.070;2023-04-03T01:06:33;6.37;;;5.73;;
16965;SDS011;8599;47.852;12.070;2023-04-03T01:09:02;9.27;;;6.80;;
16965;SDS011;8599;47.852;12.070;2023-04-03T01:11:30;8.13;;;6.67;;
16965;SDS011;8599;47.852;12.070;2023-04-03T01:13:57;6.27;;;5.67;;
16965;SDS011;8599;47.852;12.070;2023-04-03T01:16:23;10.30;;;5.97;;
16965;SDS011;8599;47.852;12.070;2023-04-03T01:18:51;7.10;;;6.17;;
16965;SDS011;8599;47.852;12.070;2023-04-03T01:24:30;7.50;;;5.60;;
16965;SDS011;8599;47.852;12.070;2023-04-03T01:26:59;6.93;;;6.17;;
16965;SDS011;8599;47.852;12.070;2023-04-03T01:29:28;10.80;;;6.00;;
16965;SDS011;8599;47.852;12.070;2023-04-03T01:31:57;14.27;;;6.33;;
16965;SDS011;8599;47.852;12.070;2023-04-03T01:34:25;8.50;;;6.23;;
16965;SDS011;8599;47.852;12.070;2023-04-03T01:36:53;6.20;;;5.50;;
16965;SDS011;8599;47.852;12.070;2023-04-03T01:39:20;8.10;;;5.67;;
16965;SDS011;8599;47.852;12.070;2023-04-03T01:41:48;6.17;;;5.53;;
16965;SDS011;8599;47.852;12.070;2023-04-03T01:44:15;8.20;;;5.70;;
16965;SDS011;8599;47.852;12.070;2023-04-03T01:46:41;6.93;;;5.50;;
16965;SDS011;8599;47.852;12.070;2023-04-03T01:49:10;5.97;;;5.37;;
16965;SDS011;8599;47.852;12.070;2023-04-03T01:51:36;5.67;;;5.17;;
16965;SDS011;8599;47.852;12.070;2023-04-03T01:54:03;6.07;;;5.50;;
16965;SDS011;8599;47.852;12.070;2023-04-03T01:56:30;7.20;;;5.43;;
16965;SDS011;8599;47.852;12.070;2023-04-03T01:58:57;5.97;;;5.37;;
16965;SDS011;8599;47.852;12.070;2023-04-03T02:01:24;6.93;;;5.30;;
16965;SDS011;8599;47.852;12.070;2023-04-03T02:03:51;6.93;;;4.87;;
16965;SDS011;8599;47.852;12.070;2023-04-03T02:06:20;5.73;;;4.73;;
16965;SDS011;8599;47.852;12.070;2023-04-03T02:08:47;7.80;;;5.63;;
16965;SDS011;8599;47.852;12.070;2023-04-03T02:11:13;6.37;;;5.37;;
16965;SDS011;8599;47.852;12.070;2023-04-03T02:13:41;8.77;;;5.33;;
16965;SDS011;8599;47.852;12.070;2023-04-03T02:16:08;6.90;;;5.33;;
16965;SDS011;8599;47.852;12.070;2023-04-03T02:18:36;9.07;;;5.33;;
16965;SDS011;8599;47.852;12.070;2023-04-03T02:21:03;5.53;;;5.00;;
16965;SDS011;8599;47.852;12.070;2023-04-03T02:23:32;6.60;;;4.93;;
16965;SDS011;8599;47.852;12.070;2023-04-03T02:26:04;7.90;;;5.00;;
16965;SDS011;8599;47.852;12.070;2023-04-03T02:28:32;8.00;;;5.63;;
16965;SDS011;8599;47.852;12.070;2023-04-03T02:30:59;5.60;;;4.93;;
16965;SDS011;8599;47.852;12.070;2023-04-03T02:33:26;5.70;;;5.13;;
16965;SDS011;8599;47.852;12.070;2023-04-03T02:35:53;5.97;;;5.17;;
16965;SDS011;8599;47.852;12.070;2023-04-03T02:38:21;6.87;;;5.83;;
16965;SDS011;8599;47.852;12.070;2023-04-03T02:40:49;10.93;;;5.23;;
16965;SDS011;8599;47.852;12.070;2023-04-03T02:43:16;5.37;;;4.87;;
16965;SDS011;8599;47.852;12.070;2023-04-03T02:45:44;6.43;;;5.80;;
16965;SDS011;8599;47.852;12.070;2023-04-03T02:48:11;6.33;;;5.40;;
16965;SDS011;8599;47.852;12.070;2023-04-03T02:50:39;7.27;;;5.77;;
16965;SDS011;8599;47.852;12.070;2023-04-03T02:53:06;7.63;;;6.33;;
16965;SDS011;8599;47.852;12.070;2023-04-03T02:55:33;7.07;;;5.70;;
16965;SDS011;8599;47.852;12.070;2023-04-03T02:58:01;6.63;;;5.23;;
16965;SDS011;8599;47.852;12.070;2023-04-03T03:00:28;6.10;;;5.50;;
16965;SDS011;8599;47.852;12.070;2023-04-03T03:02:55;6.13;;;5.40;;
16965;SDS011;8599;47.852;12.070;2023-04-03T03:05:22;7.07;;;5.43;;
16965;SDS011;8599;47.852;12.070;2023-04-03T03:07:49;6.70;;;5.80;;
16965;SDS011;8599;47.852;12.070;2023-04-03T03:10:15;5.90;;;5.30;;
16965;SDS011;8599;47.852;12.070;2023-04-03T03:12:42;7.73;;;5.50;;
16965;SDS011;8599;47.852;12.070;2023-04-03T03:15:11;5.70;;;5.20;;
16965;SDS011;8599;47.852;12.070;2023-04-03T03:17:38;7.03;;;6.27;;
16965;SDS011;8599;47.852;12.070;2023-04-03T03:20:05;6.03;;;5.43;;
16965;SDS011;8599;47.852;12.070;2023-04-03T03:22:33;6.03;;;5.33;;
16965;SDS011;8599;47.852;12.070;2023-04-03T03:25:00;6.67;;;5.70;;
16965;SDS011;8599;47.852;12.070;2023-04-03T03:27:28;6.00;;;5.40;;
16965;SDS011;8599;47.852;12.070;2023-04-03T03:29:55;7.00;;;5.50;;
16965;SDS011;8599;47.852;12.070;2023-04-03T03:32:23;7.17;;;5.43;;
16965;SDS011;8599;47.852;12.070;2023-04-03T03:34:49;7.10;;;5.80;;
16965;SDS011;8599;47.852;12.070;2023-04-03T03:37:16;6.20;;;5.60;;
16965;SDS011;8599;47.852;12.070;2023-04-03T03:39:43;5.67;;;5.10;;
16965;SDS011;8599;47.852;12.070;2023-04-03T03:42:10;7.07;;;5.07;;
16965;SDS011;8599;47.852;12.070;2023-04-03T03:44:37;6.27;;;5.27;;
16965;SDS011;8599;47.852;12.070;2023-04-03T03:47:04;6.10;;;4.93;;
16965;SDS011;8599;47.852;12.070;2023-04-03T03:49:32;5.43;;;4.90;;
16965;SDS011;8599;47.852;12.070;2023-04-03T03:52:00;6.87;;;5.40;;
16965;SDS011;8599;47.852;12.070;2023-04-03T03:54:27;7.03;;;4.90;;
16965;SDS011;8599;47.852;12.070;2023-04-03T03:56:53;5.07;;;4.67;;
16965;SDS011;8599;47.852;12.070;2023-04-03T03:59:20;5.83;;;5.30;;
16965;SDS011;8599;47.852;12.070;2023-04-03T04:01:47;9.17;;;5.60;;
16965;SDS011;8599;47.852;12.070;2023-04-03T04:04:14;4.97;;;4.47;;
16965;SDS011;8599;47.852;12.070;2023-04-03T04:06:42;6.47;;;5.07;;
16965;SDS011;8599;47.852;12.070;2023-04-03T04:09:09;9.87;;;6.37;;
16965;SDS011;8599;47.852;12.070;2023-04-03T04:11:36;8.33;;;5.60;;
16965;SDS011;8599;47.852;12.070;2023-04-03T04:14:04;11.67;;;6.90;;
16965;SDS011;8599;47.852;12.070;2023-04-03T04:16:31;11.27;;;5.40;;
16965;SDS011;8599;47.852;12.070;2023-04-03T04:18:58;6.20;;;5.60;;
16965;SDS011;8599;47.852;12.070;2023-04-03T04:21:25;5.80;;;5.20;;
16965;SDS011;8599;47.852;12.070;2023-04-03T04:23:53;5.10;;;4.60;;
16965;SDS011;8599;47.852;12.070;2023-04-03T04:26:20;9.63;;;5.43;;
16965;SDS011;8599;47.852;12.070;2023-04-03T04:28:47;6.50;;;5.57;;
16965;SDS011;8599;47.852;12.070;2023-04-03T04:31:13;5.30;;;4.80;;
16965;SDS011;8599;47.852;12.070;2023-04-03T04:33:40;5.80;;;4.77;;
16965;SDS011;8599;47.852;12.070;2023-04-03T04:36:07;5.40;;;4.90;;
16965;SDS011;8599;47.852;12.070;2023-04-03T04:38:34;6.27;;;5.13;;
16965;SDS011;8599;47.852;12.070;2023-04-03T04:41:02;6.60;;;4.80;;
16965;SDS011;8599;47.852;12.070;2023-04-03T04:43:29;7.03;;;4.10;;
16965;SDS011;8599;47.852;12.070;2023-04-03T04:46:03;7.13;;;4.47;;
16965;SDS011;8599;47.852;12.070;2023-04-03T04:48:31;6.70;;;4.40;;
16965;SDS011;8599;47.852;12.070;2023-04-03T04:50:57;6.63;;;5.07;;
16965;SDS011;8599;47.852;12.070;2023-04-03T04:53:24;5.07;;;4.57;;
16965;SDS011;8599;47.852;12.070;2023-04-03T04:55:51;6.03;;;5.20;;
16965;SDS011;8599;47.852;12.070;2023-04-03T04:58:20;8.23;;;6.40;;
16965;SDS011;8599;47.852;12.070;2023-04-03T05:00:47;8.77;;;6.27;;
16965;SDS011;8599;47.852;12.070;2023-04-03T05:03:14;8.57;;;6.10;;
16965;SDS011;8599;47.852;12.070;2023-04-03T05:05:41;5.83;;;5.27;;
16965;SDS011;8599;47.852;12.070;2023-04-03T05:08:07;8.17;;;5.97;;
16965;SDS011;8599;47.852;12.070;2023-04-03T05:10:34;7.20;;;5.00;;
16965;SDS011;8599;47.852;12.070;2023-04-03T05:13:01;6.17;;;4.90;;
16965;SDS011;8599;47.852;12.070;2023-04-03T05:15:29;5.37;;;4.67;;
16965;SDS011;8599;47.852;12.070;2023-04-03T05:17:56;5.83;;;5.00;;
16965;SDS011;8599;47.852;12.070;2023-04-03T05:20:23;4.50;;;4.10;;
16965;SDS011;8599;47.852;12.070;2023-04-03T05:22:50;4.87;;;4.20;;
16965;SDS011;8599;47.852;12.070;2023-04-03T05:25:17;8.73;;;4.73;;
16965;SDS011;8599;47.852;12.070;2023-04-03T05:27:44;6.73;;;5.60;;
16965;SDS011;8599;47.852;12.070;2023-04-03T05:30:11;8.03;;;5.33;;
16965;SDS011;8599;47.852;12.070;2023-04-03T05:32:40;4.70;;;4.03;;
16965;SDS011;8599;47.852;12.070;2023-04-03T05:35:07;5.23;;;4.03;;
16965;SDS011;8599;47.852;12.070;2023-04-03T05:37:35;4.17;;;3.77;;
16965;SDS011;8599;47.852;12.070;2023-04-03T05:40:02;5.07;;;4.13;;
16965;SDS011;8599;47.852;12.070;2023-04-03T05:42:30;7.73;;;4.27;;
16965;SDS011;8599;47.852;12.070;2023-04-03T05:44:56;5.43;;;3.87;;
16965;SDS011;8599;47.852;12.070;2023-04-03T05:47:23;4.23;;;3.90;;
16965;SDS011;8599;47.852;12.070;2023-04-03T05:49:51;4.40;;;3.93;;
16965;SDS011;8599;47.852;12.070;2023-04-03T05:52:20;4.60;;;4.10;;
16965;SDS011;8599;47.852;12.070;2023-04-03T05:54:49;4.40;;;3.77;;
16965;SDS011;8599;47.852;12.070;2023-04-03T05:57:16;4.70;;;4.23;;
16965;SDS011;8599;47.852;12.070;2023-04-03T05:59:43;4.13;;;3.47;;
16965;SDS011;8599;47.852;12.070;2023-04-03T06:02:10;4.20;;;3.73;;
16965;SDS011;8599;47.852;12.070;2023-04-03T06:04:38;7.40;;;3.97;;
16965;SDS011;8599;47.852;12.070;2023-04-03T06:07:08;7.23;;;4.40;;
16965;SDS011;8599;47.852;12.070;2023-04-03T06:09:37;9.87;;;4.30;;
16965;SDS011;8599;47.852;12.070;2023-04-03T06:12:04;9.37;;;3.77;;
16965;SDS011;8599;47.852;12.070;2023-04-03T06:14:31;4.07;;;3.60;;
16965;SDS011;8599;47.852;12.070;2023-04-03T06:16:58;7.30;;;3.90;;
16965;SDS011;8599;47.852;12.070;2023-04-03T06:19:26;6.63;;;4.47;;
16965;SDS011;8599;47.852;12.070;2023-04-03T06:21:53;4.30;;;3.90;;
16965;SDS011;8599;47.852;12.070;2023-04-03T06:24:21;4.23;;;3.77;;
16965;SDS011;8599;47.852;12.070;2023-04-03T06:26:50;8.27;;;4.80;;
16965;SDS011;8599;47.852;12.070;2023-04-03T06:29:17;5.13;;;4.00;;
16965;SDS011;8599;47.852;12.070;2023-04-03T06:31:44;5.23;;;3.83;;
16965;SDS011;8599;47.852;12.070;2023-04-03T06:34:11;5.83;;;3.97;;
16965;SDS011;8599;47.852;12.070;2023-04-03T06:36:38;5.27;;;4.13;;
16965;SDS011;8599;47.852;12.070;2023-04-03T06:39:05;4.67;;;3.90;;
16965;SDS011;8599;47.852;12.070;2023-04-03T06:41:34;6.37;;;5.33;;
16965;SDS011;8599;47.852;12.070;2023-04-03T06:44:01;5.37;;;4.03;;
16965;SDS011;8599;47.852;12.070;2023-04-03T06:46:28;5.90;;;4.07;;
16965;SDS011;8599;47.852;12.070;2023-04-03T06:48:55;5.23;;;4.20;;
16965;SDS011;8599;47.852;12.070;2023-04-03T06:51:22;8.50;;;3.77;;
16965;SDS011;8599;47.852;12.070;2023-04-03T06:53:51;3.83;;;3.50;;
16965;SDS011;8599;47.852;12.070;2023-04-03T06:56:20;11.33;;;3.80;;
16965;SDS011;8599;47.852;12.070;2023-04-03T06:58:48;5.53;;;3.67;;
16965;SDS011;8599;47.852;12.070;2023-04-03T07:01:17;3.40;;;3.10;;
16965;SDS011;8599;47.852;12.070;2023-04-03T07:03:46;3.93;;;3.20;;
16965;SDS011;8599;47.852;12.070;2023-04-03T07:06:13;12.20;;;3.20;;
16965;SDS011;8599;47.852;12.070;2023-04-03T07:08:42;4.03;;;3.63;;
16965;SDS011;8599;47.852;12.070;2023-04-03T07:11:09;4.70;;;3.13;;
16965;SDS011;8599;47.852;12.070;2023-04-03T07:13:37;5.07;;;4.00;;
16965;SDS011;8599;47.852;12.070;2023-04-03T07:16:07;4.37;;;3.43;;
16965;SDS011;8599;47.852;12.070;2023-04-03T07:18:35;3.60;;;3.30;;
16965;SDS011;8599;47.852;12.070;2023-04-03T07:21:02;4.83;;;3.50;;
16965;SDS011;8599;47.852;12.070;2023-04-03T07:23:29;4.13;;;3.27;;
16965;SDS011;8599;47.852;12.070;2023-04-03T07:25:56;3.43;;;3.13;;
16965;SDS011;8599;47.852;12.070;2023-04-03T07:28:23;5.60;;;3.40;;
16965;SDS011;8599;47.852;12.070;2023-04-03T07:30:51;3.50;;;3.20;;
16965;SDS011;8599;47.852;12.070;2023-04-03T07:33:21;3.30;;;2.90;;
16965;SDS011;8599;47.852;12.070;2023-04-03T07:35:49;3.50;;;3.20;;
16965;SDS011;8599;47.852;12.070;2023-04-03T07:38:16;3.10;;;2.87;;
16965;SDS011;8599;47.852;12.070;2023-04-03T07:40:45;4.67;;;4.13;;
16965;SDS011;8599;47.852;12.070;2023-04-03T07:43:13;6.73;;;4.17;;
16965;SDS011;8599;47.852;12.070;2023-04-03T07:45:40;4.03;;;3.27;;
16965;SDS011;8599;47.852;12.070;2023-04-03T07:48:08;7.53;;;3.67;;
16965;SDS011;8599;47.852;12.070;2023-04-03T07:50:36;4.70;;;3.80;;
16965;SDS011;8599;47.852;12.070;2023-04-03T07:53:05;4.30;;;3.73;;
16965;SDS011;8599;47.852;12.070;2023-04-03T07:55:32;8.57;;;4.13;;
16965;SDS011;8599;47.852;12.070;2023-04-03T07:58:02;3.23;;;2.93;;
16965;SDS011;8599;47.852;12.070;2023-04-03T08:00:29;8.93;;;3.47;;
16965;SDS011;8599;47.852;12.070;2023-04-03T08:02:56;4.03;;;3.30;;
16965;SDS011;8599;47.852;12.070;2023-04-03T08:05:23;4.90;;;4.27;;
16965;SDS011;8599;47.852;12.070;2023-04-03T08:07:51;3.17;;;2.97;;
16965;SDS011;8599;47.852;12.070;2023-04-03T08:10:18;5.83;;;4.73;;
16965;SDS011;8599;47.852;12.070;2023-04-03T08:12:45;6.40;;;3.17;;
16965;SDS011;8599;47.852;12.070;2023-04-03T08:15:13;5.40;;;3.83;;
16965;SDS011;8599;47.852;12.070;2023-04-03T08:17:41;4.70;;;3.13;;
16965;SDS011;8599;47.852;12.070;2023-04-03T08:20:09;5.00;;;4.07;;
16965;SDS011;8599;47.852;12.070;2023-04-03T08:22:36;3.33;;;3.03;;
16965;SDS011;8599;47.852;12.070;2023-04-03T08:25:05;4.10;;;3.37;;
16965;SDS011;8599;47.852;12.070;2023-04-03T08:27:32;3.23;;;2.93;;
16965;SDS011;8599;47.852;12.070;2023-04-03T08:29:59;3.40;;;3.10;;
16965;SDS011;8599;47.852;12.070;2023-04-03T08:32:28;4.17;;;2.93;;
16965;SDS011;8599;47.852;12.070;2023-04-03T08:34:55;10.10;;;3.67;;
16965;SDS011;8599;47.852;12.070;2023-04-03T08:37:22;3.27;;;2.87;;
16965;SDS011;8599;47.852;12.070;2023-04-03T08:39:50;3.60;;;3.23;;
16965;SDS011;8599;47.852;12.070;2023-04-03T08:42:23;5.07;;;4.03;;
16965;SDS011;8599;47.852;12.070;2023-04-03T08:45:04;4.53;;;3.57;;
16965;SDS011;8599;47.852;12.070;2023-04-03T08:47:37;9.00;;;3.53;;
16965;SDS011;8599;47.852;12.070;2023-04-03T08:50:11;5.50;;;2.97;;
16965;SDS011;8599;47.852;12.070;2023-04-03T08:52:41;4.30;;;3.53;;
16965;SDS011;8599;47.852;12.070;2023-04-03T08:55:14;5.47;;;3.07;;
16965;SDS011;8599;47.852;12.070;2023-04-03T08:57:50;6.83;;;3.40;;
16965;SDS011;8599;47.852;12.070;2023-04-03T09:00:24;3.43;;;3.03;;
16965;SDS011;8599;47.852;12.070;2023-04-03T09:02:54;3.67;;;3.37;;
16965;SDS011;8599;47.852;12.070;2023-04-03T09:05:26;3.07;;;2.87;;
16965;SDS011;8599;47.852;12.070;2023-04-03T09:08:04;3.40;;;3.10;;
16965;SDS011;8599;47.852;12.070;2023-04-03T09:10:38;3.67;;;3.00;;
16965;SDS011;8599;47.852;12.070;2023-04-03T09:13:10;5.00;;;2.87;;
16965;SDS011;8599;47.852;12.070;2023-04-03T09:15:43;4.93;;;3.03;;
16965;SDS011;8599;47.852;12.070;2023-04-03T09:18:12;3.77;;;3.23;;
16965;SDS011;8599;47.852;12.070;2023-04-03T09:20:43;3.43;;;3.13;;
16965;SDS011;8599;47.852;12.070;2023-04-03T09:23:18;4.33;;;3.27;;
16965;SDS011;8599;47.852;12.070;2023-04-03T09:25:49;5.47;;;3.33;;
16965;SDS011;8599;47.852;12.070;2023-04-03T09:28:20;3.77;;;3.20;;
16965;SDS011;8599;47.852;12.070;2023-04-03T09:30:47;4.50;;;3.03;;
16965;SDS011;8599;47.852;12.070;2023-04-03T09:33:14;3.20;;;3.00;;
16965;SDS011;8599;47.852;12.070;2023-04-03T09:35:42;4.37;;;3.10;;
16965;SDS011;8599;47.852;12.070;2023-04-03T09:38:17;7.10;;;3.13;;
16965;SDS011;8599;47.852;12.070;2023-04-03T09:40:45;3.23;;;2.93;;
16965;SDS011;8599;47.852;12.070;2023-04-03T09:43:23;7.43;;;3.47;;
16965;SDS011;8599;47.852;12.070;2023-04-03T09:45:54;4.27;;;3.30;;
16965;SDS011;8599;47.852;12.070;2023-04-03T09:48:23;3.27;;;2.93;;
16965;SDS011;8599;47.852;12.070;2023-04-03T09:50:55;2.80;;;2.60;;
16965;SDS011;8599;47.852;12.070;2023-04-03T09:53:29;3.83;;;3.17;;
16965;SDS011;8599;47.852;12.070;2023-04-03T09:56:02;3.20;;;2.90;;
16965;SDS011;8599;47.852;12.070;2023-04-03T09:58:32;4.00;;;3.37;;
16965;SDS011;8599;47.852;12.070;2023-04-03T10:01:03;3.80;;;3.03;;
16965;SDS011;8599;47.852;12.070;2023-04-03T10:03:32;3.60;;;3.00;;
16965;SDS011;8599;47.852;12.070;2023-04-03T10:06:01;3.23;;;2.93;;
16965;SDS011;8599;47.852;12.070;2023-04-03T10:08:29;3.80;;;3.23;;
16965;SDS011;8599;47.852;12.070;2023-04-03T10:11:08;4.27;;;3.17;;
16965;SDS011;8599;47.852;12.070;2023-04-03T10:13:53;3.37;;;3.10;;
16965;SDS011;8599;47.852;12.070;2023-04-03T10:16:23;4.23;;;3.27;;
16965;SDS011;8599;47.852;12.070;2023-04-03T10:18:59;3.63;;;3.33;;
16965;SDS011;8599;47.852;12.070;2023-04-03T10:21:46;3.50;;;3.20;;
16965;SDS011;8599;47.852;12.070;2023-04-03T10:24:18;4.57;;;3.40;;
16965;SDS011;8599;47.852;12.070;2023-04-03T10:26:52;3.53;;;3.23;;
16965;SDS011;8599;47.852;12.070;2023-04-03T10:29:30;3.43;;;3.17;;
16965;SDS011;8599;47.852;12.070;2023-04-03T10:32:10;2.97;;;2.77;;
16965;SDS011;8599;47.852;12.070;2023-04-03T10:34:57;3.53;;;3.00;;
16965;SDS011;8599;47.852;12.070;2023-04-03T10:37:35;5.30;;;3.70;;
16965;SDS011;8599;47.852;12.070;2023-04-03T10:40:15;2.77;;;2.57;;
16965;SDS011;8599;47.852;12.070;2023-04-03T10:42:52;2.50;;;2.30;;
16965;SDS011;8599;47.852;12.070;2023-04-03T10:45:26;5.33;;;3.30;;
16965;SDS011;8599;47.852;12.070;2023-04-03T10:47:58;2.60;;;2.40;;
16965;SDS011;8599;47.852;12.070;2023-04-03T10:50:36;2.70;;;2.43;;
16965;SDS011;8599;47.852;12.070;2023-04-03T10:53:11;2.53;;;2.33;;
16965;SDS011;8599;47.852;12.070;2023-04-03T10:55:48;3.30;;;3.00;;
16965;SDS011;8599;47.852;12.070;2023-04-03T10:58:20;2.70;;;2.50;;
16965;SDS011;8599;47.852;12.070;2023-04-03T11:00:54;2.67;;;2.47;;
16965;SDS011;8599;47.852;12.070;2023-04-03T11:03:29;3.27;;;2.50;;
16965;SDS011;8599;47.852;12.070;2023-04-03T11:06:00;2.70;;;2.50;;
16965;SDS011;8599;47.852;12.070;2023-04-03T11:08:33;2.73;;;2.47;;
16965;SDS011;8599;47.852;12.070;2023-04-03T11:11:05;3.33;;;2.43;;
16965;SDS011;8599;47.852;12.070;2023-04-03T11:13:36;4.33;;;2.70;;
16965;SDS011;8599;47.852;12.070;2023-04-03T11:16:09;3.30;;;2.70;;
16965;SDS011;8599;47.852;12.070;2023-04-03T11:18:42;3.00;;;2.70;;
16965;SDS011;8599;47.852;12.070;2023-04-03T11:21:14;2.87;;;2.30;;
16965;SDS011;8599;47.852;12.070;2023-04-03T11:23:48;2.50;;;2.33;;
16965;SDS011;8599;47.852;12.070;2023-04-03T11:26:17;5.53;;;2.90;;
16965;SDS011;8599;47.852;12.070;2023-04-03T11:28:46;5.93;;;2.80;;
16965;SDS011;8599;47.852;12.070;2023-04-03T11:31:29;3.20;;;2.80;;
16965;SDS011;8599;47.852;12.070;2023-04-03T11:34:08;3.13;;;2.80;;
16965;SDS011;8599;47.852;12.070;2023-04-03T11:36:46;4.47;;;3.00;;
16965;SDS011;8599;47.852;12.070;2023-04-03T11:39:17;7.13;;;2.50;;
16965;SDS011;8599;47.852;12.070;2023-04-03T11:41:48;2.50;;;2.30;;
16965;SDS011;8599;47.852;12.070;2023-04-03T11:44:27;3.90;;;2.83;;
16965;SDS011;8599;47.852;12.070;2023-04-03T11:46:59;2.90;;;2.57;;
16965;SDS011;8599;47.852;12.070;2023-04-03T11:58:19;2.57;;;2.37;;
16965;SDS011;8599;47.852;12.070;2023-04-03T12:00:50;3.50;;;3.20;;
16965;SDS011;8599;47.852;12.070;2023-04-03T12:12:55;2.93;;;2.50;;
16965;SDS011;8599;47.852;12.070;2023-04-03T12:24:25;3.00;;;2.70;;
16965;SDS011;8599;47.852;12.070;2023-04-03T12:27:04;2.60;;;2.33;;
16965;SDS011;8599;47.852;12.070;2023-04-03T12:29:43;3.63;;;3.00;;
16965;SDS011;8599;47.852;12.070;2023-04-03T12:32:19;3.60;;;2.30;;
16965;SDS011;8599;47.852;12.070;2023-04-03T12:34:58;5.37;;;3.00;;
16965;SDS011;8599;47.852;12.070;2023-04-03T12:37:40;3.40;;;3.10;;
16965;SDS011;8599;47.852;12.070;2023-04-03T12:40:17;3.43;;;3.13;;
16965;SDS011;8599;47.852;12.070;2023-04-03T12:42:58;3.27;;;3.00;;
16965;SDS011;8599;47.852;12.070;2023-04-03T12:45:38;3.23;;;2.97;;
16965;SDS011;8599;47.852;12.070;2023-04-03T12:48:12;3.83;;;2.70;;
16965;SDS011;8599;47.852;12.070;2023-04-03T12:50:42;3.50;;;3.20;;
16965;SDS011;8599;47.852;12.070;2023-04-03T12:53:13;6.53;;;3.30;;
16965;SDS011;8599;47.852;12.070;2023-04-03T12:55:43;4.07;;;2.80;;
16965;SDS011;8599;47.852;12.070;2023-04-03T12:58:13;3.43;;;2.87;;
16965;SDS011;8599;47.852;12.070;2023-04-03T13:00:42;4.17;;;3.60;;
16965;SDS011;8599;47.852;12.070;2023-04-03T13:03:18;3.40;;;3.10;;
16965;SDS011;8599;47.852;12.070;2023-04-03T13:05:53;3.33;;;2.70;;
16965;SDS011;8599;47.852;12.070;2023-04-03T13:08:22;3.07;;;2.87;;
16965;SDS011;8599;47.852;12.070;2023-04-03T13:10:51;3.33;;;3.03;;
16965;SDS011;8599;47.852;12.070;2023-04-03T13:13:22;6.00;;;3.20;;
16965;SDS011;8599;47.852;12.070;2023-04-03T13:15:51;4.37;;;3.00;;
16965;SDS011;8599;47.852;12.070;2023-04-03T13:18:23;3.83;;;2.80;;
16965;SDS011;8599;47.852;12.070;2023-04-03T13:20:53;3.57;;;3.07;;
16965;SDS011;8599;47.852;12.070;2023-04-03T13:23:27;3.00;;;2.67;;
16965;SDS011;8599;47.852;12.070;2023-04-03T13:25:55;3.00;;;2.70;;
16965;SDS011;8599;47.852;12.070;2023-04-03T13:28:25;4.33;;;3.13;;
16965;SDS011;8599;47.852;12.070;2023-04-03T13:30:54;6.70;;;2.60;;
16965;SDS011;8599;47.852;12.070;2023-04-03T13:33:25;2.90;;;2.70;;
16965;SDS011;8599;47.852;12.070;2023-04-03T13:35:56;7.90;;;2.97;;
16965;SDS011;8599;47.852;12.070;2023-04-03T13:38:25;3.37;;;2.80;;
16965;SDS011;8599;47.852;12.070;2023-04-03T13:40:56;4.13;;;3.00;;
16965;SDS011;8599;47.852;12.070;2023-04-03T13:43:26;3.43;;;3.13;;
16965;SDS011;8599;47.852;12.070;2023-04-03T13:46:02;3.70;;;3.00;;
16965;SDS011;8599;47.852;12.070;2023-04-03T13:48:35;2.70;;;2.50;;
16965;SDS011;8599;47.852;12.070;2023-04-03T13:51:12;3.77;;;2.73;;
16965;SDS011;8599;47.852;12.070;2023-04-03T13:53:46;7.37;;;3.80;;
16965;SDS011;8599;47.852;12.070;2023-04-03T13:56:19;7.27;;;3.67;;
16965;SDS011;8599;47.852;12.070;2023-04-03T13:58:58;5.50;;;3.47;;
16965;SDS011;8599;47.852;12.070;2023-04-03T14:01:34;4.30;;;2.77;;
16965;SDS011;8599;47.852;12.070;2023-04-03T14:04:11;3.10;;;2.80;;
16965;SDS011;8599;47.852;12.070;2023-04-03T14:06:43;3.63;;;3.30;;
16965;SDS011;8599;47.852;12.070;2023-04-03T14:09:11;3.60;;;2.70;;
16965;SDS011;8599;47.852;12.070;2023-04-03T14:11:39;2.80;;;2.43;;
16965;SDS011;8599;47.852;12.070;2023-04-03T14:14:09;5.27;;;3.10;;
16965;SDS011;8599;47.852;12.070;2023-04-03T14:16:40;4.00;;;2.73;;
16965;SDS011;8599;47.852;12.070;2023-04-03T14:19:14;3.37;;;2.67;;
16965;SDS011;8599;47.852;12.070;2023-04-03T14:21:46;3.00;;;2.80;;
16965;SDS011;8599;47.852;12.070;2023-04-03T14:24:14;3.87;;;3.23;;
16965;SDS011;8599;47.852;12.070;2023-04-03T14:26:41;3.63;;;3.13;;
16965;SDS011;8599;47.852;12.070;2023-04-03T14:29:10;9.10;;;3.13;;
16965;SDS011;8599;47.852;12.070;2023-04-03T14:31:38;4.70;;;3.07;;
16965;SDS011;8599;47.852;12.070;2023-04-03T14:34:05;3.70;;;3.00;;
16965;SDS011;8599;47.852;12.070;2023-04-03T14:36:32;4.73;;;3.53;;
16965;SDS011;8599;47.852;12.070;2023-04-03T14:39:02;6.43;;;4.20;;
16965;SDS011;8599;47.852;12.070;2023-04-03T14:41:30;5.23;;;3.00;;
16965;SDS011;8599;47.852;12.070;2023-04-03T14:43:57;8.47;;;5.53;;
16965;SDS011;8599;47.852;12.070;2023-04-03T14:46:25;8.93;;;5.07;;
16965;SDS011;8599;47.852;12.070;2023-04-03T14:48:55;13.20;;;4.33;;
16965;SDS011;8599;47.852;12.070;2023-04-03T14:51:22;6.80;;;4.70;;
16965;SDS011;8599;47.852;12.070;2023-04-03T14:53:49;11.93;;;4.63;;
16965;SDS011;8599;47.852;12.070;2023-04-03T14:56:19;3.57;;;3.20;;
16965;SDS011;8599;47.852;12.070;2023-04-03T14:58:50;3.00;;;2.70;;
16965;SDS011;8599;47.852;12.070;2023-04-03T15:01:21;6.87;;;2.80;;
16965;SDS011;8599;47.852;12.070;2023-04-03T15:03:48;5.23;;;3.17;;
16965;SDS011;8599;47.852;12.070;2023-04-03T15:06:14;4.43;;;3.20;;
16965;SDS011;8599;47.852;12.070;2023-04-03T15:08:41;5.47;;;3.90;;
16965;SDS011;8599;47.852;12.070;2023-04-03T15:11:10;4.67;;;3.47;;
16965;SDS011;8599;47.852;12.070;2023-04-03T15:13:38;4.67;;;2.97;;
16965;SDS011;8599;47.852;12.070;2023-04-03T15:16:05;4.13;;;2.90;;
16965;SDS011;8599;47.852;12.070;2023-04-03T15:18:39;8.10;;;5.23;;
16965;SDS011;8599;47.852;12.070;2023-04-03T15:21:05;3.70;;;2.70;;
16965;SDS011;8599;47.852;12.070;2023-04-03T15:23:32;4.17;;;3.73;;
16965;SDS011;8599;47.852;12.070;2023-04-03T15:25:59;12.93;;;6.40;;
16965;SDS011;8599;47.852;12.070;2023-04-03T15:28:27;11.10;;;4.27;;
16965;SDS011;8599;47.852;12.070;2023-04-03T15:30:57;8.77;;;3.00;;